<?xml version="1.0" encoding="UTF-8" standalone="no" ?>
<gpx xmlns="http://www.topografix.com/GPX/1/1" xmlns:xsi="http://www.w3.org/2001/XMLSchema-instance" xsi:schemaLocation="http://www.topografix.com/GPX/1/1 http://www.topografix.com/GPX/1/1/gpx.xsd" version="1.1" creator="VisuGPX - https://www.visugpx.com">
  <metadata>
    <name>boucles beaumont</name>
    <desc><![CDATA[boucles beaumont du périgord]]></desc>
  </metadata>
  <trk>
    <name><![CDATA[BBmt04]]></name>
    <trkseg>
      <trkpt lat="44.79836" lon="0.73508">
        <ele>56</ele>
        <time>2008-12-09T13:04:50Z</time>
      </trkpt>
      <trkpt lat="44.79821" lon="0.73482">
        <ele>57</ele>
        <time>2009-06-18T16:43:36Z</time>
      </trkpt>
      <trkpt lat="44.79532" lon="0.72741">
        <ele>84</ele>
        <time>2009-06-18T16:43:36Z</time>
      </trkpt>
      <trkpt lat="44.79153" lon="0.71798">
        <ele>144</ele>
        <time>2009-06-18T16:43:36Z</time>
      </trkpt>
      <trkpt lat="44.79133" lon="0.71793">
        <ele>148</ele>
        <time>2008-12-09T13:05:10Z</time>
      </trkpt>
      <trkpt lat="44.79113" lon="0.71788">
        <ele>146</ele>
        <time>2008-12-09T13:05:25Z</time>
      </trkpt>
      <trkpt lat="44.79095" lon="0.71778">
        <ele>147</ele>
        <time>2008-12-09T13:05:30Z</time>
      </trkpt>
      <trkpt lat="44.79078" lon="0.7177">
        <ele>147</ele>
        <time>2008-12-09T13:05:35Z</time>
      </trkpt>
      <trkpt lat="44.7906" lon="0.71763">
        <ele>148</ele>
        <time>2008-12-09T13:05:48Z</time>
      </trkpt>
      <trkpt lat="44.7904" lon="0.7176">
        <ele>149</ele>
        <time>2008-12-09T13:05:52Z</time>
      </trkpt>
      <trkpt lat="44.79018" lon="0.71753">
        <ele>150</ele>
        <time>2008-12-09T13:05:56Z</time>
      </trkpt>
      <trkpt lat="44.79" lon="0.7174">
        <ele>151</ele>
        <time>2008-12-09T13:05:59Z</time>
      </trkpt>
      <trkpt lat="44.78983" lon="0.71728">
        <ele>153</ele>
        <time>2008-12-09T13:06:04Z</time>
      </trkpt>
      <trkpt lat="44.7897" lon="0.71748">
        <ele>154</ele>
        <time>2008-12-09T13:06:19Z</time>
      </trkpt>
      <trkpt lat="44.7896" lon="0.7177">
        <ele>158</ele>
        <time>2008-12-09T13:06:28Z</time>
      </trkpt>
      <trkpt lat="44.78945" lon="0.71788">
        <ele>160</ele>
        <time>2008-12-09T13:06:36Z</time>
      </trkpt>
      <trkpt lat="44.78928" lon="0.71798">
        <ele>159</ele>
        <time>2008-12-09T13:06:44Z</time>
      </trkpt>
      <trkpt lat="44.78913" lon="0.71818">
        <ele>161</ele>
        <time>2008-12-09T13:07:01Z</time>
      </trkpt>
      <trkpt lat="44.78895" lon="0.7183">
        <ele>156</ele>
        <time>2008-12-09T13:07:09Z</time>
      </trkpt>
      <trkpt lat="44.78878" lon="0.71843">
        <ele>155</ele>
        <time>2008-12-09T13:07:16Z</time>
      </trkpt>
      <trkpt lat="44.7886" lon="0.71855">
        <ele>153</ele>
        <time>2008-12-09T13:07:22Z</time>
      </trkpt>
      <trkpt lat="44.78843" lon="0.71865">
        <ele>150</ele>
        <time>2008-12-09T13:07:27Z</time>
      </trkpt>
      <trkpt lat="44.78823" lon="0.71868">
        <ele>148</ele>
        <time>2008-12-09T13:07:32Z</time>
      </trkpt>
      <trkpt lat="44.788" lon="0.71865">
        <ele>145</ele>
        <time>2008-12-09T13:07:38Z</time>
      </trkpt>
      <trkpt lat="44.78783" lon="0.71855">
        <ele>143</ele>
        <time>2008-12-09T13:07:43Z</time>
      </trkpt>
      <trkpt lat="44.78765" lon="0.71848">
        <ele>141</ele>
        <time>2008-12-09T13:07:48Z</time>
      </trkpt>
      <trkpt lat="44.78748" lon="0.7184">
        <ele>138</ele>
        <time>2008-12-09T13:07:54Z</time>
      </trkpt>
      <trkpt lat="44.7873" lon="0.7183">
        <ele>140</ele>
        <time>2008-12-09T13:08:00Z</time>
      </trkpt>
      <trkpt lat="44.7871" lon="0.71818">
        <ele>139</ele>
        <time>2008-12-09T13:08:05Z</time>
      </trkpt>
      <trkpt lat="44.7869" lon="0.71818">
        <ele>138</ele>
        <time>2008-12-09T13:08:11Z</time>
      </trkpt>
      <trkpt lat="44.78675" lon="0.71835">
        <ele>132</ele>
        <time>2008-12-09T13:08:17Z</time>
      </trkpt>
      <trkpt lat="44.78663" lon="0.71855">
        <ele>129</ele>
        <time>2008-12-09T13:08:21Z</time>
      </trkpt>
      <trkpt lat="44.78648" lon="0.71875">
        <ele>125</ele>
        <time>2008-12-09T13:08:25Z</time>
      </trkpt>
      <trkpt lat="44.78635" lon="0.71898">
        <ele>123</ele>
        <time>2008-12-09T13:08:30Z</time>
      </trkpt>
      <trkpt lat="44.7862" lon="0.71918">
        <ele>125</ele>
        <time>2008-12-09T13:08:36Z</time>
      </trkpt>
      <trkpt lat="44.78605" lon="0.71935">
        <ele>121</ele>
        <time>2008-12-09T13:09:06Z</time>
      </trkpt>
      <trkpt lat="44.78585" lon="0.71928">
        <ele>120</ele>
        <time>2008-12-09T13:09:14Z</time>
      </trkpt>
      <trkpt lat="44.78565" lon="0.71915">
        <ele>125</ele>
        <time>2008-12-09T13:09:22Z</time>
      </trkpt>
      <trkpt lat="44.78548" lon="0.71903">
        <ele>130</ele>
        <time>2008-12-09T13:09:28Z</time>
      </trkpt>
      <trkpt lat="44.7853" lon="0.71893">
        <ele>131</ele>
        <time>2008-12-09T13:09:36Z</time>
      </trkpt>
      <trkpt lat="44.78515" lon="0.71878">
        <ele>129</ele>
        <time>2008-12-09T13:09:42Z</time>
      </trkpt>
      <trkpt lat="44.78495" lon="0.71875">
        <ele>133</ele>
        <time>2008-12-09T13:09:48Z</time>
      </trkpt>
      <trkpt lat="44.78475" lon="0.71873">
        <ele>136</ele>
        <time>2008-12-09T13:09:56Z</time>
      </trkpt>
      <trkpt lat="44.78455" lon="0.7187">
        <ele>140</ele>
        <time>2008-12-09T13:10:03Z</time>
      </trkpt>
      <trkpt lat="44.78435" lon="0.71868">
        <ele>144</ele>
        <time>2008-12-09T13:10:10Z</time>
      </trkpt>
      <trkpt lat="44.78415" lon="0.71863">
        <ele>145</ele>
        <time>2008-12-09T13:10:16Z</time>
      </trkpt>
      <trkpt lat="44.78398" lon="0.7185">
        <ele>149</ele>
        <time>2008-12-09T13:10:23Z</time>
      </trkpt>
      <trkpt lat="44.7838" lon="0.71843">
        <ele>152</ele>
        <time>2008-12-09T13:10:29Z</time>
      </trkpt>
      <trkpt lat="44.78358" lon="0.71845">
        <ele>151</ele>
        <time>2008-12-09T13:10:36Z</time>
      </trkpt>
      <trkpt lat="44.78338" lon="0.71848">
        <ele>151</ele>
        <time>2008-12-09T13:10:44Z</time>
      </trkpt>
      <trkpt lat="44.78315" lon="0.71843">
        <ele>150</ele>
        <time>2008-12-09T13:10:51Z</time>
      </trkpt>
      <trkpt lat="44.78295" lon="0.71838">
        <ele>152</ele>
        <time>2008-12-09T13:10:59Z</time>
      </trkpt>
      <trkpt lat="44.78275" lon="0.71838">
        <ele>153</ele>
        <time>2008-12-09T13:11:07Z</time>
      </trkpt>
      <trkpt lat="44.78255" lon="0.71838">
        <ele>153</ele>
        <time>2008-12-09T13:11:12Z</time>
      </trkpt>
      <trkpt lat="44.78235" lon="0.7184">
        <ele>150</ele>
        <time>2008-12-09T13:11:18Z</time>
      </trkpt>
      <trkpt lat="44.78215" lon="0.71843">
        <ele>146</ele>
        <time>2008-12-09T13:11:24Z</time>
      </trkpt>
      <trkpt lat="44.78195" lon="0.71843">
        <ele>142</ele>
        <time>2008-12-09T13:11:29Z</time>
      </trkpt>
      <trkpt lat="44.78175" lon="0.7184">
        <ele>140</ele>
        <time>2008-12-09T13:11:36Z</time>
      </trkpt>
      <trkpt lat="44.78153" lon="0.7184">
        <ele>137</ele>
        <time>2008-12-09T13:11:42Z</time>
      </trkpt>
      <trkpt lat="44.78133" lon="0.7184">
        <ele>135</ele>
        <time>2008-12-09T13:11:47Z</time>
      </trkpt>
      <trkpt lat="44.78113" lon="0.71838">
        <ele>137</ele>
        <time>2008-12-09T13:11:56Z</time>
      </trkpt>
    </trkseg>
  </trk>
</gpx>